createdAt,value
2022-08-12T00:00:59.100Z,17.70
2022-08-12T00:04:04.496Z,17.60
2022-08-12T00:07:09.730Z,17.50
2022-08-12T00:10:14.095Z,17.40
2022-08-12T00:13:18.686Z,17.40
2022-08-12T00:16:23.701Z,17.30
2022-08-12T00:19:28.209Z,17.20
2022-08-12T00:22:33.062Z,17.10
2022-08-12T00:25:55.719Z,17.10
2022-08-12T00:29:02.929Z,17.10
2022-08-12T00:32:07.292Z,17.20
2022-08-12T00:35:17.289Z,17.10
2022-08-12T00:38:22.377Z,17.10
2022-08-12T00:41:27.370Z,17.00
2022-08-12T00:44:15.522Z,17.00
2022-08-12T00:47:02.414Z,17.10
2022-08-12T00:49:50.159Z,17.00
2022-08-12T00:52:36.441Z,16.90
2022-08-12T00:55:22.450Z,16.80
2022-08-12T00:58:10.698Z,16.70
2022-08-12T01:01:04.194Z,16.70
2022-08-12T01:04:10.030Z,16.60
2022-08-12T01:07:17.142Z,16.60
2022-08-12T01:10:29.656Z,16.60
2022-08-12T01:13:20.767Z,16.60
2022-08-12T01:16:08.689Z,16.60
2022-08-12T01:18:57.213Z,16.50
2022-08-12T01:22:16.409Z,16.60
2022-08-12T01:25:12.612Z,16.60
2022-08-12T01:28:01.587Z,16.60
2022-08-12T01:30:49.727Z,16.60
2022-08-12T01:33:43.554Z,16.50
2022-08-12T01:36:40.709Z,16.40
2022-08-12T01:39:31.914Z,16.40
2022-08-12T01:42:20.438Z,16.30
2022-08-12T01:45:07.540Z,16.30
2022-08-12T01:48:08.413Z,16.20
2022-08-12T01:52:20.630Z,16.10
2022-08-12T01:54:51.014Z,16.10
2022-08-12T01:57:57.681Z,16.00
2022-08-12T02:00:59.208Z,15.90
2022-08-12T02:04:13.503Z,15.90
2022-08-12T02:07:35.790Z,15.90
2022-08-12T02:11:16.817Z,15.90
2022-08-12T02:14:36.321Z,15.80
2022-08-12T02:17:56.032Z,15.90
2022-08-12T02:21:04.099Z,15.80
2022-08-12T02:23:51.386Z,15.80
2022-08-12T02:26:40.899Z,15.80
2022-08-12T02:29:27.174Z,15.80
2022-08-12T02:32:14.535Z,15.70
2022-08-12T02:35:01.898Z,15.70
2022-08-12T02:37:50.562Z,15.60
2022-08-12T02:40:39.363Z,15.60
2022-08-12T02:43:45.248Z,15.50
2022-08-12T02:46:34.322Z,15.50
2022-08-12T02:49:31.310Z,15.50
2022-08-12T02:52:19.370Z,15.60
2022-08-12T02:55:34.103Z,15.50
2022-08-12T02:58:21.289Z,15.50
2022-08-12T03:01:25.005Z,15.40
2022-08-12T03:04:20.335Z,15.40
2022-08-12T03:07:26.741Z,15.40
2022-08-12T03:10:36.781Z,15.40
2022-08-12T03:13:26.472Z,15.30
2022-08-12T03:16:14.518Z,15.30
2022-08-12T03:19:00.639Z,15.20
2022-08-12T03:21:58.035Z,15.20
2022-08-12T03:25:00.119Z,15.20
2022-08-12T03:27:55.950Z,15.10
2022-08-12T03:30:43.178Z,15.00
2022-08-12T03:33:31.366Z,14.90
2022-08-12T03:36:20.457Z,14.80
2022-08-12T03:39:36.994Z,14.80
2022-08-12T03:42:51.874Z,14.80
2022-08-12T03:45:56.763Z,14.90
2022-08-12T03:49:02.265Z,14.90
2022-08-12T03:52:06.729Z,14.80
2022-08-12T03:55:11.379Z,14.70
2022-08-12T03:58:16.161Z,14.70
2022-08-12T04:01:02.287Z,14.80
2022-08-12T04:03:52.471Z,14.70
2022-08-12T04:06:46.868Z,14.70
2022-08-12T04:09:33.625Z,14.80
2022-08-12T04:12:38.185Z,14.80
2022-08-12T04:15:28.921Z,14.70
2022-08-12T04:18:16.056Z,14.70
2022-08-12T04:21:03.386Z,14.70
2022-08-12T04:23:49.706Z,14.80
2022-08-12T04:26:36.097Z,14.70
2022-08-12T04:30:29.549Z,14.80
2022-08-12T04:32:31.842Z,14.70
2022-08-12T04:35:18.555Z,14.40
2022-08-12T04:38:05.368Z,14.20
2022-08-12T04:40:52.284Z,14.20
2022-08-12T04:44:00.627Z,14.20
2022-08-12T04:46:44.698Z,14.30
2022-08-12T04:49:32.152Z,14.40
2022-08-12T04:52:18.591Z,14.50
2022-08-12T04:55:04.899Z,14.40
2022-08-12T04:57:51.166Z,14.40
2022-08-12T05:00:38.137Z,14.40
2022-08-12T05:03:26.354Z,14.40
2022-08-12T05:06:12.576Z,14.50
2022-08-12T05:09:13.808Z,14.60
2022-08-12T05:11:59.749Z,14.80
2022-08-12T05:14:46.286Z,14.90
2022-08-12T05:17:32.150Z,15.10
2022-08-12T05:20:22.719Z,15.20
2022-08-12T05:23:20.557Z,15.30
2022-08-12T05:26:07.530Z,15.40
2022-08-12T05:28:54.224Z,15.40
2022-08-12T05:31:48.187Z,15.60
2022-08-12T05:34:34.895Z,15.70
2022-08-12T05:37:23.933Z,15.70
2022-08-12T05:40:11.593Z,15.90
2022-08-12T05:42:57.974Z,16.00
2022-08-12T05:45:45.798Z,16.00
2022-08-12T05:48:32.506Z,16.10
2022-08-12T05:51:18.841Z,16.20
2022-08-12T05:54:05.284Z,16.30
2022-08-12T05:56:52.234Z,16.30
2022-08-12T05:59:41.788Z,16.40
2022-08-12T06:02:27.814Z,16.40
2022-08-12T06:05:14.083Z,16.40
2022-08-12T06:08:03.181Z,16.60
2022-08-12T06:10:50.404Z,16.60
2022-08-12T06:13:54.521Z,16.80
2022-08-12T06:16:41.224Z,16.90
2022-08-12T06:20:26.336Z,17.00
2022-08-12T06:22:35.899Z,17.10
2022-08-12T06:25:22.634Z,17.20
2022-08-12T06:28:17.702Z,17.30
2022-08-12T06:31:25.192Z,17.50
2022-08-12T06:35:25.182Z,17.50
2022-08-12T06:37:20.780Z,17.60
2022-08-12T06:40:13.346Z,17.60
2022-08-12T06:42:59.507Z,17.60
2022-08-12T06:45:47.278Z,17.80
2022-08-12T06:48:33.740Z,17.80
2022-08-12T06:51:20.670Z,17.90
2022-08-12T06:54:07.421Z,18.00
2022-08-12T06:57:05.422Z,18.10
2022-08-12T07:00:01.918Z,18.20
2022-08-12T07:02:49.345Z,18.30
2022-08-12T07:05:35.664Z,18.40
2022-08-12T07:08:21.941Z,18.50
2022-08-12T07:11:10.053Z,18.60
2022-08-12T07:14:11.830Z,18.70
2022-08-12T07:17:02.324Z,18.80
2022-08-12T07:19:51.932Z,18.90
2022-08-12T07:22:39.697Z,19.10
2022-08-12T07:25:41.092Z,19.20
2022-08-12T07:28:30.914Z,19.30
2022-08-12T07:31:18.374Z,19.50
2022-08-12T07:34:05.967Z,19.50
2022-08-12T07:36:52.347Z,19.60
2022-08-12T07:39:51.010Z,19.60
2022-08-12T07:42:45.561Z,19.70
2022-08-12T07:45:31.796Z,19.90
2022-08-12T07:48:17.831Z,20.00
2022-08-12T07:51:04.215Z,20.10
2022-08-12T07:54:00.022Z,20.20
2022-08-12T07:56:47.529Z,20.20
2022-08-12T07:59:35.799Z,20.40
2022-08-12T08:02:22.346Z,20.50
2022-08-12T08:05:13.144Z,20.50
2022-08-12T08:08:02.289Z,20.70
2022-08-12T08:10:50.181Z,20.80
2022-08-12T08:13:38.946Z,21.00
2022-08-12T08:16:25.350Z,21.00
2022-08-12T08:19:23.924Z,21.10
2022-08-12T08:22:10.529Z,21.10
2022-08-12T08:24:57.731Z,21.10
2022-08-12T08:27:45.769Z,21.10
2022-08-12T08:30:33.468Z,21.20
2022-08-12T08:33:59.222Z,21.30
2022-08-12T08:36:26.097Z,21.50
2022-08-12T08:39:17.157Z,21.60
2022-08-12T08:42:21.673Z,21.70
2022-08-12T08:45:12.997Z,21.80
2022-08-12T08:48:00.627Z,21.80
2022-08-12T08:50:46.576Z,21.80
2022-08-12T08:53:52.811Z,21.90
2022-08-12T08:56:43.122Z,21.90
2022-08-12T08:59:29.498Z,22.10
2022-08-12T09:02:15.671Z,22.10
2022-08-12T09:05:12.132Z,22.20
2022-08-12T09:08:14.211Z,22.30
2022-08-12T09:12:06.657Z,22.40
2022-08-12T09:14:29.414Z,22.50
2022-08-12T09:17:20.999Z,22.60
2022-08-12T09:20:09.431Z,22.60
2022-08-12T09:22:56.385Z,22.70
2022-08-12T09:25:45.103Z,22.80
2022-08-12T09:28:36.896Z,22.90
2022-08-12T09:32:03.177Z,23.10
2022-08-12T09:34:33.518Z,23.10
2022-08-12T09:37:28.344Z,23.20
2022-08-12T09:40:57.045Z,23.30
2022-08-12T09:44:05.164Z,23.30
2022-08-12T09:46:51.751Z,23.50
2022-08-12T09:49:42.357Z,23.50
2022-08-12T09:52:31.871Z,23.50
2022-08-12T09:56:05.993Z,23.30
2022-08-12T09:58:57.077Z,23.10
2022-08-12T10:02:41.788Z,22.90
2022-08-12T10:04:51.790Z,22.80
2022-08-12T10:07:39.760Z,22.70
2022-08-12T10:10:30.544Z,22.90
2022-08-12T10:13:42.687Z,23.10
2022-08-12T10:16:38.754Z,23.20
2022-08-12T10:19:36.473Z,23.30
2022-08-12T10:22:40.193Z,23.30
2022-08-12T10:26:35.749Z,23.30
2022-08-12T10:30:01.703Z,23.30
2022-08-12T10:33:02.438Z,23.30
2022-08-12T10:35:31.556Z,23.50
2022-08-12T10:38:34.846Z,23.60
2022-08-12T10:41:56.914Z,24.00
2022-08-12T10:44:46.858Z,24.50
2022-08-12T10:48:20.353Z,24.90
2022-08-12T10:50:56.373Z,25.00
2022-08-12T10:53:48.050Z,25.10
2022-08-12T10:56:40.601Z,25.00
2022-08-12T11:00:01.361Z,25.30
2022-08-12T11:04:28.012Z,25.70
2022-08-12T11:07:05.821Z,25.90
2022-08-12T11:08:48.641Z,26.20
2022-08-12T11:12:35.016Z,26.30
2022-08-12T11:14:50.541Z,26.10
2022-08-12T11:17:52.151Z,26.20
2022-08-12T11:20:41.114Z,26.30
2022-08-12T11:23:37.330Z,26.30
2022-08-12T11:26:23.729Z,26.20
2022-08-12T11:29:22.859Z,26.00
2022-08-12T11:32:09.212Z,25.70
2022-08-12T11:34:55.862Z,25.60
2022-08-12T11:37:57.717Z,25.90
2022-08-12T11:40:44.874Z,25.90
2022-08-12T11:43:32.734Z,25.80
2022-08-12T11:46:37.911Z,25.60
2022-08-12T11:49:31.136Z,25.60
2022-08-12T11:52:36.653Z,25.70
2022-08-12T11:55:27.540Z,25.80
2022-08-12T11:59:28.634Z,26.00
2022-08-12T12:02:02.645Z,25.80
2022-08-12T12:04:29.510Z,25.50
2022-08-12T12:07:16.466Z,25.30
2022-08-12T12:10:02.640Z,25.20
2022-08-12T12:12:50.097Z,25.00
2022-08-12T12:15:41.145Z,25.00
2022-08-12T12:18:30.901Z,25.10
2022-08-12T12:21:17.405Z,25.20
2022-08-12T12:24:03.633Z,25.00
2022-08-12T12:27:00.871Z,24.90
2022-08-12T12:30:18.008Z,25.00
2022-08-12T12:32:53.827Z,25.10
2022-08-12T12:36:06.325Z,25.20
2022-08-12T12:38:47.282Z,25.20
2022-08-12T12:42:54.337Z,25.10
2022-08-12T12:44:50.846Z,25.30
2022-08-12T12:48:04.537Z,25.60
2022-08-12T12:51:13.816Z,25.90
2022-08-12T12:54:24.445Z,25.90
2022-08-12T12:57:16.766Z,26.10
2022-08-12T13:00:15.572Z,26.00
2022-08-12T13:03:02.500Z,25.80
2022-08-12T13:05:53.934Z,25.80
2022-08-12T13:08:40.646Z,25.80
2022-08-12T13:11:41.743Z,26.00
2022-08-12T13:14:31.645Z,26.20
2022-08-12T13:17:21.801Z,26.50
2022-08-12T13:20:10.081Z,26.70
2022-08-12T13:22:55.944Z,26.70
2022-08-12T13:25:42.412Z,26.80
2022-08-12T13:28:29.836Z,27.00
2022-08-12T13:31:16.447Z,26.80
2022-08-12T13:34:33.151Z,26.90
2022-08-12T13:37:10.400Z,26.80
2022-08-12T13:39:57.869Z,26.90
2022-08-12T13:42:45.032Z,26.80
2022-08-12T13:45:32.782Z,26.90
2022-08-12T13:48:19.795Z,27.00
2022-08-12T13:51:06.180Z,27.00
2022-08-12T13:53:58.354Z,27.00
2022-08-12T13:56:50.065Z,27.00
2022-08-12T13:59:48.136Z,26.60
2022-08-12T14:02:34.246Z,26.40
2022-08-12T14:05:31.246Z,26.40
2022-08-12T14:08:25.535Z,26.50
2022-08-12T14:11:13.199Z,26.30
2022-08-12T14:14:04.123Z,26.30
2022-08-12T14:16:58.226Z,26.10
2022-08-12T14:20:04.893Z,25.90
2022-08-12T14:22:52.076Z,25.80
2022-08-12T14:25:43.798Z,25.80
2022-08-12T14:28:34.908Z,25.70
2022-08-12T14:31:25.665Z,25.80
2022-08-12T14:34:14.201Z,25.80
2022-08-12T14:37:02.372Z,25.80
2022-08-12T14:39:53.434Z,25.70
2022-08-12T14:42:40.002Z,25.70
2022-08-12T14:45:45.442Z,25.70
2022-08-12T14:48:33.549Z,25.70
2022-08-12T14:53:04.539Z,25.60
2022-08-12T14:57:57.204Z,25.50
2022-08-12T15:01:02.995Z,25.60
2022-08-12T15:03:58.242Z,25.50
2022-08-12T15:06:52.600Z,25.50
2022-08-12T15:09:39.216Z,25.50
2022-08-12T15:12:26.243Z,25.40
2022-08-12T15:15:17.664Z,25.40
2022-08-12T15:18:14.042Z,25.40
2022-08-12T15:21:05.516Z,25.40
2022-08-12T15:23:57.555Z,25.40
2022-08-12T15:26:43.733Z,25.40
2022-08-12T15:29:33.060Z,25.30
2022-08-12T15:32:20.268Z,25.20
2022-08-12T15:35:22.553Z,25.20
2022-08-12T15:38:15.897Z,25.20
2022-08-12T15:41:06.472Z,25.10
2022-08-12T15:44:38.022Z,25.00
2022-08-12T15:47:02.488Z,24.90
2022-08-12T15:49:59.720Z,24.90
2022-08-12T15:52:47.576Z,24.70
2022-08-12T15:55:35.869Z,24.70
2022-08-12T15:58:21.949Z,24.60
2022-08-12T16:01:15.590Z,24.40
2022-08-12T16:04:01.901Z,24.20
2022-08-12T16:07:06.071Z,24.00
2022-08-12T16:10:05.518Z,23.90
2022-08-12T16:12:55.387Z,23.80
2022-08-12T16:15:42.479Z,23.70
2022-08-12T16:18:48.048Z,23.50
2022-08-12T16:21:51.964Z,23.30
2022-08-12T16:24:43.473Z,22.90
2022-08-12T16:27:38.251Z,22.50
2022-08-12T16:30:38.706Z,22.00
2022-08-12T16:33:59.515Z,21.60
2022-08-12T16:36:45.960Z,21.30
2022-08-12T16:39:57.434Z,21.10
2022-08-12T16:42:54.426Z,21.00
2022-08-12T16:46:05.428Z,21.10
2022-08-12T16:48:55.552Z,21.20
2022-08-12T16:51:46.517Z,21.20
2022-08-12T16:54:36.162Z,21.30
2022-08-12T16:57:34.997Z,21.40
2022-08-12T17:00:24.945Z,21.50
2022-08-12T17:03:12.673Z,21.50
2022-08-12T17:06:22.182Z,21.60
2022-08-12T17:09:16.927Z,21.70
2022-08-12T17:12:04.825Z,21.70
2022-08-12T17:14:52.984Z,21.80
2022-08-12T17:17:42.103Z,21.90
2022-08-12T17:20:36.689Z,21.90
2022-08-12T17:23:33.417Z,21.90
2022-08-12T17:26:35.488Z,22.00
2022-08-12T17:30:01.238Z,21.90
2022-08-12T17:32:33.960Z,21.90
2022-08-12T17:35:36.921Z,21.90
2022-08-12T17:38:24.330Z,21.80
2022-08-12T17:41:23.274Z,21.80
2022-08-12T17:44:16.697Z,21.80
2022-08-12T17:47:04.723Z,21.80
2022-08-12T17:50:02.868Z,21.70
2022-08-12T17:52:51.852Z,21.70
2022-08-12T17:55:47.831Z,21.60
2022-08-12T17:58:38.017Z,21.60
2022-08-12T18:01:24.942Z,21.50
2022-08-12T18:04:22.789Z,21.50
2022-08-12T18:07:23.524Z,21.40
2022-08-12T18:10:12.945Z,21.40
2022-08-12T18:13:02.180Z,21.40
2022-08-12T18:16:06.128Z,21.30
2022-08-12T18:18:59.398Z,21.30
2022-08-12T18:22:01.723Z,21.20
2022-08-12T18:24:49.508Z,21.20
2022-08-12T18:27:48.512Z,21.10
2022-08-12T18:30:58.583Z,21.00
2022-08-12T18:33:49.710Z,21.00
2022-08-12T18:36:35.834Z,21.00
2022-08-12T18:39:22.521Z,20.90
2022-08-12T18:42:08.830Z,20.80
2022-08-12T18:45:02.835Z,20.80
2022-08-12T18:47:50.005Z,20.70
2022-08-12T18:50:49.224Z,20.70
2022-08-12T18:54:06.194Z,20.70
2022-08-12T18:56:45.460Z,20.60
2022-08-12T19:00:02.265Z,20.50
2022-08-12T19:02:39.854Z,20.40
2022-08-12T19:05:53.219Z,20.40
2022-08-12T19:08:37.601Z,20.30
2022-08-12T19:11:45.306Z,20.40
2022-08-12T19:14:35.238Z,20.30
2022-08-12T19:17:21.530Z,20.30
2022-08-12T19:20:29.857Z,20.20
2022-08-12T19:23:21.096Z,20.00
2022-08-12T19:26:12.733Z,20.00
2022-08-12T19:28:59.523Z,19.80
2022-08-12T19:31:57.474Z,19.70
2022-08-12T19:36:06.622Z,19.60
2022-08-12T19:38:03.475Z,19.50
2022-08-12T19:40:52.309Z,19.50
2022-08-12T19:43:41.006Z,19.50
2022-08-12T19:46:51.880Z,19.50
2022-08-12T19:49:51.320Z,19.50
2022-08-12T19:52:39.012Z,19.40
2022-08-12T19:55:29.495Z,19.40
2022-08-12T19:58:27.013Z,19.40
2022-08-12T20:01:14.850Z,19.40
2022-08-12T20:04:03.195Z,19.30
2022-08-12T20:06:51.551Z,19.30
2022-08-12T20:09:42.000Z,19.30
2022-08-12T20:12:32.907Z,19.30
2022-08-12T20:15:22.039Z,19.20
2022-08-12T20:18:33.843Z,19.20
2022-08-12T20:21:24.463Z,19.20
2022-08-12T20:24:12.409Z,19.20
2022-08-12T20:27:00.609Z,19.10
2022-08-12T20:29:48.713Z,19.00
2022-08-12T20:32:52.743Z,18.90
2022-08-12T20:36:06.211Z,18.90
2022-08-12T20:38:46.606Z,18.80
2022-08-12T20:41:33.363Z,18.90
2022-08-12T20:44:19.589Z,18.90
2022-08-12T20:47:17.964Z,18.70
2022-08-12T20:50:08.074Z,18.60
2022-08-12T20:52:54.790Z,18.70
2022-08-12T20:55:43.019Z,18.70
2022-08-12T20:58:30.690Z,18.60
2022-08-12T21:01:25.905Z,18.60
2022-08-12T21:04:35.550Z,18.50
2022-08-12T21:07:23.590Z,18.50
2022-08-12T21:10:11.054Z,18.50
2022-08-12T21:12:57.215Z,18.40
2022-08-12T21:15:54.481Z,18.40
2022-08-12T21:18:41.653Z,18.30
2022-08-12T21:21:49.972Z,18.30
2022-08-12T21:24:38.069Z,18.30
2022-08-12T21:27:59.317Z,18.20
2022-08-12T21:30:54.771Z,18.20
2022-08-12T21:34:08.874Z,18.20
2022-08-12T21:36:56.715Z,18.10
2022-08-12T21:39:46.323Z,18.10
2022-08-12T21:42:39.831Z,18.10
2022-08-12T21:45:47.936Z,18.10
2022-08-12T21:48:35.334Z,18.10
2022-08-12T21:51:23.645Z,18.10
2022-08-12T21:54:10.222Z,18.00
2022-08-12T21:56:56.102Z,18.00
2022-08-12T21:59:43.756Z,17.90
2022-08-12T22:02:48.564Z,18.00
2022-08-12T22:05:53.192Z,18.00
2022-08-12T22:08:39.150Z,17.90
2022-08-12T22:11:40.984Z,17.90
2022-08-12T22:14:29.332Z,17.80
2022-08-12T22:17:20.252Z,17.80
2022-08-12T22:20:10.893Z,17.70
2022-08-12T22:23:00.243Z,17.60
2022-08-12T22:25:48.423Z,17.60
2022-08-12T22:28:57.241Z,17.50
2022-08-12T22:31:43.616Z,17.50
2022-08-12T22:34:33.333Z,17.40
2022-08-12T22:37:19.688Z,17.40
2022-08-12T22:40:06.882Z,17.40
2022-08-12T22:43:15.276Z,17.40
2022-08-12T22:46:30.322Z,17.30
2022-08-12T22:49:16.586Z,17.30
2022-08-12T22:52:11.260Z,17.20
2022-08-12T22:55:03.445Z,17.20
2022-08-12T22:57:54.928Z,17.20
2022-08-12T23:00:52.783Z,17.10
2022-08-12T23:03:49.408Z,17.00
2022-08-12T23:06:36.654Z,17.00
2022-08-12T23:09:26.844Z,16.90
2022-08-12T23:12:46.839Z,16.90
2022-08-12T23:15:35.151Z,16.70
2022-08-12T23:18:22.338Z,16.50
2022-08-12T23:21:18.619Z,16.50
2022-08-12T23:24:10.924Z,16.50
2022-08-12T23:27:18.123Z,16.50
2022-08-12T23:30:18.914Z,16.50
2022-08-12T23:33:20.605Z,16.40
2022-08-12T23:36:12.603Z,16.40
2022-08-12T23:39:01.890Z,16.40
2022-08-12T23:41:56.625Z,16.30
2022-08-12T23:44:56.500Z,16.30
2022-08-12T23:47:47.664Z,16.20
2022-08-12T23:50:35.087Z,16.20
2022-08-12T23:53:32.304Z,16.20
2022-08-12T23:56:18.913Z,16.10
2022-08-12T23:59:08.857Z,16.00
